Time;durP1;ratioP1;P1;durP2;ratioP2;P2;SDS_P1;SDS_P2;PMS_P1;PMS_P2;Temp;Humidity;BMP_temperature;BMP_pressure;BME280_temperature;BME280_humidity;BME280_pressure;Samples;Min_cycle;Max_cycle;Signal;HPM_P1;HPM_P2
2023/05/28 00:00:48;;;;;;;4.65;2.47;;;;;;;8.83;47.88;100434.91;1713983;82;20993;-69
2023/05/28 00:03:20;;;;;;;5.25;2.70;;;;;;;8.86;47.84;100433.96;1705223;82;21031;-68
2023/05/28 00:05:48;;;;;;;5.10;2.47;;;;;;;8.88;47.76;100430.88;1708406;82;20968;-69
2023/05/28 00:08:16;;;;;;;7.72;2.10;;;;;;;8.91;47.84;100433.39;1707650;82;21435;-69
2023/05/28 00:10:43;;;;;;;8.28;2.60;;;;;;;8.92;47.72;100429.87;1714642;82;21030;-68
2023/05/28 00:13:11;;;;;;;6.22;2.58;;;;;;;8.93;47.68;100436.36;1710058;82;21568;-70
2023/05/28 00:15:44;;;;;;;4.45;2.50;;;;;;;8.94;47.67;100438.05;1688697;82;21077;-70
2023/05/28 00:18:14;;;;;;;4.90;2.95;;;;;;;8.96;47.68;100431.48;1688455;83;21073;-70
2023/05/28 00:20:45;;;;;;;3.92;2.37;;;;;;;8.97;47.68;100430.59;1717353;81;21089;-70
2023/05/28 00:23:17;;;;;;;3.15;1.90;;;;;;;8.99;47.70;100430.11;1695316;82;21053;-69
2023/05/28 00:25:43;;;;;;;4.03;2.15;;;;;;;8.96;47.78;100426.27;1752686;79;21071;-69
2023/05/28 00:28:10;;;;;;;5.45;2.40;;;;;;;8.95;47.72;100427.17;1753333;79;21073;-70
2023/05/28 00:30:36;;;;;;;4.58;2.47;;;;;;;8.95;47.72;100428.02;1759199;79;21049;-70
2023/05/28 00:33:02;;;;;;;5.12;1.67;;;;;;;8.93;47.69;100423.75;1753103;79;21070;-70
2023/05/28 00:35:30;;;;;;;4.75;2.05;;;;;;;8.91;47.71;100420.36;1737456;79;21000;-70
2023/05/28 00:37:56;;;;;;;4.47;2.30;;;;;;;8.89;47.73;100414.34;1754171;79;21533;-68
2023/05/28 00:40:27;;;;;;;7.42;2.40;;;;;;;8.89;47.75;100424.76;1767430;78;21590;-71
2023/05/28 00:42:56;;;;;;;6.10;2.40;;;;;;;8.87;47.66;100419.58;1759783;79;21083;-71
2023/05/28 00:45:24;;;;;;;4.37;2.00;;;;;;;8.88;47.66;100423.06;1763615;79;21009;-71
2023/05/28 00:47:51;;;;;;;5.15;2.58;;;;;;;8.85;47.69;100424.00;1753324;79;21471;-70
2023/05/28 00:50:17;;;;;;;4.47;2.08;;;;;;;8.81;47.76;100422.82;1756568;79;22213;-70
2023/05/28 00:52:48;;;;;;;8.00;2.40;;;;;;;8.78;47.88;100421.16;1750384;79;21031;-70
2023/05/28 00:55:15;;;;;;;6.65;2.10;;;;;;;8.75;47.76;100417.34;1756322;79;21387;-69
2023/05/28 00:57:46;;;;;;;5.33;2.85;;;;;;;8.68;47.78;100419.28;1756736;79;20971;-70
2023/05/28 01:00:13;;;;;;;6.53;2.27;;;;;;;8.66;47.93;100422.36;1759811;78;21506;-70
2023/05/28 01:02:42;;;;;;;4.08;2.37;;;;;;;8.60;47.88;100416.03;1753714;79;21589;-70
2023/05/28 01:05:09;;;;;;;3.58;2.10;;;;;;;8.60;47.88;100418.64;1752056;79;20995;-69
2023/05/28 01:07:38;;;;;;;3.77;2.15;;;;;;;8.61;47.91;100410.37;1751578;80;21669;-69
2023/05/28 01:10:10;;;;;;;4.83;2.20;;;;;;;8.60;47.90;100409.53;1753413;80;20964;-70
2023/05/28 01:12:37;;;;;;;3.55;1.72;;;;;;;8.59;48.00;100405.20;1752042;78;21004;-70
2023/05/28 01:15:04;;;;;;;4.15;2.80;;;;;;;8.60;47.91;100408.23;1754061;79;21031;-69
2023/05/28 01:17:31;;;;;;;3.80;2.37;;;;;;;8.58;47.99;100404.80;1755397;79;21066;-70
2023/05/28 01:20:05;;;;;;;3.15;2.08;;;;;;;8.57;47.99;100399.63;1756735;79;21877;-70
2023/05/28 01:22:31;;;;;;;4.87;1.98;;;;;;;8.55;47.91;100398.38;1743368;79;21066;-69
2023/05/28 01:25:01;;;;;;;2.92;1.98;;;;;;;8.56;48.03;100403.98;1708790;82;21073;-70
2023/05/28 01:27:28;;;;;;;3.00;2.00;;;;;;;8.56;47.90;100401.38;1710284;81;21002;-69
2023/05/28 01:29:57;;;;;;;2.98;1.90;;;;;;;8.55;47.95;100404.89;1713455;82;21010;-70
2023/05/28 01:32:25;;;;;;;5.60;1.82;;;;;;;8.55;47.94;100396.23;1710508;82;22504;-70
2023/05/28 01:34:51;;;;;;;4.67;2.08;;;;;;;8.55;47.97;100399.69;1711313;82;21549;-69
2023/05/28 01:37:18;;;;;;;5.95;1.77;;;;;;;8.53;47.96;100393.66;1709037;82;20958;-69
2023/05/28 01:39:48;;;;;;;5.90;1.92;;;;;;;8.51;47.97;100396.75;1714737;81;21097;-69
2023/05/28 01:42:15;;;;;;;3.25;1.70;;;;;;;8.52;48.01;100391.97;1710638;82;21074;-70
2023/05/28 01:44:43;;;;;;;5.97;1.85;;;;;;;8.52;48.02;100401.08;1716051;82;21355;-69
2023/05/28 01:47:12;;;;;;;3.92;2.15;;;;;;;8.52;48.03;100391.97;1713611;81;21088;-70
2023/05/28 01:49:39;;;;;;;6.50;2.00;;;;;;;8.50;48.00;100396.35;1711026;82;21013;-70
2023/05/28 01:52:07;;;;;;;6.03;2.00;;;;;;;8.51;48.04;100391.55;1692023;83;21536;-70
2023/05/28 01:54:34;;;;;;;5.37;2.35;;;;;;;8.49;48.05;100392.91;1711584;82;21619;-70
2023/05/28 01:57:03;;;;;;;3.65;1.70;;;;;;;8.49;48.00;100386.85;1709842;82;21109;-70
2023/05/28 01:59:34;;;;;;;4.10;1.50;;;;;;;8.49;48.01;100381.64;1709972;82;20942;-70
2023/05/28 02:01:59;;;;;;;5.15;1.60;;;;;;;8.48;48.00;100385.13;1714050;81;21015;-70
2023/05/28 02:04:25;;;;;;;3.22;1.52;;;;;;;8.49;48.04;100381.64;1712512;83;21383;-69
2023/05/28 02:06:52;;;;;;;4.53;1.85;;;;;;;8.49;48.09;100373.84;1711337;82;21600;-69
2023/05/28 02:09:22;;;;;;;3.05;1.50;;;;;;;8.49;48.04;100376.44;1715227;82;21565;-69
2023/05/28 02:11:49;;;;;;;2.80;1.40;;;;;;;8.50;48.01;100371.63;1709879;82;21532;-69
2023/05/28 02:14:16;;;;;;;3.25;1.47;;;;;;;8.52;48.03;100365.94;1711818;82;21544;-70
2023/05/28 02:16:58;;;;;;;;;;;;;;;;;;;;;
2023/05/28 02:19:19;;;;;;;2.10;1.02;;;;;;;8.54;47.96;100366.73;1708251;82;21172;-70
2023/05/28 02:21:46;;;;;;;3.62;1.50;;;;;;;8.55;48.06;100360.64;1715917;82;21444;-67
2023/05/28 02:24:12;;;;;;;4.10;1.25;;;;;;;8.58;48.02;100361.86;1725193;80;20992;-69
2023/05/28 02:26:39;;;;;;;4.53;1.43;;;;;;;8.59;48.02;100359.64;1734281;80;21048;-69
2023/05/28 02:29:13;;;;;;;3.30;1.32;;;;;;;8.59;48.09;100359.64;1732158;79;21568;-69
2023/05/28 02:31:33;;;;;;;2.17;1.40;;;;;;;8.61;48.06;100350.05;1727507;80;21093;-69
2023/05/28 02:34:00;;;;;;;4.78;1.37;;;;;;;8.63;48.07;100358.67;1723272;80;21029;-69
2023/05/28 02:36:26;;;;;;;2.42;1.20;;;;;;;8.64;48.10;100355.16;1729027;80;20962;-69
2023/05/28 02:38:52;;;;;;;2.60;0.98;;;;;;;8.64;48.13;100353.86;1737288;80;21009;-69
2023/05/28 02:41:18;;;;;;;2.30;1.10;;;;;;;8.65;48.18;100356.86;1723219;80;20990;-69
2023/05/28 02:43:45;;;;;;;2.62;1.82;;;;;;;8.62;48.15;100358.25;1729901;80;20998;-68
2023/05/28 02:46:11;;;;;;;5.47;1.00;;;;;;;8.63;48.26;100355.22;1734643;80;21053;-69
2023/05/28 02:48:37;;;;;;;1.57;1.05;;;;;;;8.64;48.17;100362.97;1732184;80;21082;-68
2023/05/28 02:51:03;;;;;;;4.03;1.60;;;;;;;8.66;48.31;100355.98;1740184;80;21005;-68
2023/05/28 02:53:31;;;;;;;3.33;1.20;;;;;;;8.71;48.32;100359.31;1721696;80;21104;-69
2023/05/28 02:55:58;;;;;;;5.47;1.65;;;;;;;8.77;48.26;100357.42;1733710;80;21017;-69
2023/05/28 02:58:24;;;;;;;2.80;1.32;;;;;;;8.80;48.36;100363.39;1725586;80;21132;-69
2023/05/28 03:00:50;;;;;;;2.75;1.40;;;;;;;8.85;48.32;100365.83;1723830;80;21030;-70
2023/05/28 03:03:17;;;;;;;5.28;1.35;;;;;;;8.90;48.39;100361.34;1737078;80;20934;-68
2023/05/28 03:05:43;;;;;;;3.60;1.10;;;;;;;8.96;48.36;100354.64;1728837;80;21022;-69
2023/05/28 03:08:09;;;;;;;2.62;1.57;;;;;;;9.00;48.42;100357.58;1725896;80;21004;-68
2023/05/28 03:10:37;;;;;;;4.70;1.45;;;;;;;9.04;48.42;100348.75;1726175;80;21029;-68
2023/05/28 03:13:03;;;;;;;2.92;1.27;;;;;;;9.11;48.52;100356.80;1725072;80;21006;-70
2023/05/28 03:15:31;;;;;;;3.20;1.60;;;;;;;9.18;48.51;100356.98;1717997;82;20975;-70
2023/05/28 03:17:57;;;;;;;;;;;;;;;9.24;48.58;100352.48;1732884;80;20994;-69
2023/05/28 03:20:23;;;;;;;2.40;1.07;;;;;;;9.31;48.58;100351.41;1731969;80;20143;-69
2023/05/28 03:22:54;;;;;;;2.60;1.55;;;;;;;9.34;48.53;100346.09;1732988;79;20992;-68
2023/05/28 03:25:21;;;;;;;3.08;1.40;;;;;;;9.40;48.55;100351.09;1720312;82;21501;-70
2023/05/28 03:27:48;;;;;;;4.67;1.40;;;;;;;9.48;48.59;100359.52;1689061;83;21018;-69
2023/05/28 03:30:14;;;;;;;5.72;1.65;;;;;;;9.55;48.61;100351.04;1759019;79;20970;-69
2023/05/28 03:32:43;;;;;;;2.85;1.00;;;;;;;9.61;48.61;100350.41;1759595;78;21100;-70
2023/05/28 03:35:09;;;;;;;3.35;1.10;;;;;;;9.68;48.63;100350.20;1729174;82;21052;-69
2023/05/28 03:37:35;;;;;;;3.50;1.32;;;;;;;9.73;48.67;100340.47;1765816;79;21074;-69
2023/05/28 03:40:04;;;;;;;2.27;1.10;;;;;;;9.82;48.59;100340.14;1765509;79;21012;-70
2023/05/28 03:42:30;;;;;;;5.12;1.20;;;;;;;9.89;48.59;100346.88;1763868;79;21025;-68
2023/05/28 03:44:56;;;;;;;5.75;1.67;;;;;;;9.99;48.64;100339.10;1767262;79;21021;-69
2023/05/28 03:47:24;;;;;;;2.90;0.90;;;;;;;10.06;48.61;100339.30;1763315;80;21042;-69
2023/05/28 03:49:50;;;;;;;3.42;1.00;;;;;;;10.17;48.62;100335.47;1700382;83;21653;-69
2023/05/28 03:52:16;;;;;;;1.60;0.82;;;;;;;10.27;48.60;100332.94;1767218;80;21537;-68
2023/05/28 03:54:43;;;;;;;3.35;1.20;;;;;;;10.37;48.63;100333.02;1759813;79;21528;-69
2023/05/28 03:57:09;;;;;;;1.77;1.00;;;;;;;10.57;48.69;100331.42;1760565;79;20979;-69
2023/05/28 03:59:37;;;;;;;1.92;1.00;;;;;;;10.57;48.69;100331.42;1759682;79;21027;-69
2023/05/28 04:02:02;;;;;;;;;;;;;;;10.68;48.68;100331.87;1766002;79;21054;-69
2023/05/28 04:04:29;;;;;;;1.22;0.90;;;;;;;10.79;48.66;100329.70;1756116;79;20155;-70
2023/05/28 04:06:56;;;;;;;1.60;0.97;;;;;;;10.90;48.63;100327.52;1760084;79;21570;-68
2023/05/28 04:09:27;;;;;;;4.25;1.17;;;;;;;11.03;48.73;100328.34;1762633;80;21470;-70
2023/05/28 04:11:53;;;;;;;3.52;0.90;;;;;;;11.16;48.58;100328.25;1753935;79;20987;-69
2023/05/28 04:14:20;;;;;;;1.87;0.80;;;;;;;11.27;48.58;100328.67;1755496;79;21087;-70
2023/05/28 04:16:46;;;;;;;2.60;1.20;;;;;;;11.39;48.64;100333.39;1752855;80;21078;-70
2023/05/28 04:19:12;;;;;;;4.97;1.20;;;;;;;11.52;48.64;100335.52;1768259;78;21069;-70
2023/05/28 04:21:38;;;;;;;2.75;0.95;;;;;;;11.75;48.56;100326.23;1764588;79;20958;-69
2023/05/28 04:24:05;;;;;;;2.47;1.00;;;;;;;11.75;48.56;100326.23;1765087;79;22304;-70
2023/05/28 04:26:32;;;;;;;4.17;0.95;;;;;;;11.84;48.58;100331.08;1755877;79;20980;-70
2023/05/28 04:28:59;;;;;;;2.95;1.22;;;;;;;11.97;48.53;100326.67;1764761;80;21006;-70
2023/05/28 04:31:29;;;;;;;1.80;1.02;;;;;;;12.11;48.56;100326.92;1760720;80;21294;-69
2023/05/28 04:33:55;;;;;;;1.80;0.93;;;;;;;12.23;48.39;100321.13;1756244;79;22769;-70
2023/05/28 04:36:28;;;;;;;2.67;1.50;;;;;;;12.33;48.50;100315.50;1758825;79;21862;-71
2023/05/28 04:38:52;;;;;;;3.42;1.02;;;;;;;12.46;48.46;100323.17;1754429;79;20943;-71
2023/05/28 04:41:18;;;;;;;1.30;0.90;;;;;;;12.60;48.53;100323.38;1760944;79;21659;-70
2023/05/28 04:43:45;;;;;;;1.52;0.80;;;;;;;12.76;48.28;100316.52;1763314;80;20975;-70
2023/05/28 04:46:11;;;;;;;1.98;0.82;;;;;;;12.88;48.21;100320.80;1763940;79;21091;-70
2023/05/28 04:48:51;;;;;;;;;;;;;;;;;;;;;
2023/05/28 04:51:15;;;;;;;5.33;1.25;;;;;;;13.14;48.18;100317.79;1753964;79;21106;-69
2023/05/28 04:53:41;;;;;;;2.87;1.00;;;;;;;13.26;48.01;100315.53;1761036;79;20988;-69
2023/05/28 04:56:11;;;;;;;3.17;0.93;;;;;;;13.37;47.96;100316.69;1718196;81;21062;-69
2023/05/28 04:58:40;;;;;;;3.05;0.95;;;;;;;13.49;47.87;100307.36;1757650;79;20998;-69
2023/05/28 05:01:09;;;;;;;5.87;1.12;;;;;;;13.60;47.89;100305.05;1757458;79;21019;-70
2023/05/28 05:03:35;;;;;;;2.08;1.12;;;;;;;13.75;47.74;100299.94;1761316;79;21010;-69
2023/05/28 05:06:03;;;;;;;3.27;1.15;;;;;;;13.84;47.70;100307.36;1760368;80;21007;-70
2023/05/28 05:08:30;;;;;;;2.77;0.70;;;;;;;13.97;47.67;100308.41;1759895;80;21397;-69
2023/05/28 05:10:57;;;;;;;2.60;1.40;;;;;;;14.16;47.66;100302.20;1757478;79;20944;-69
2023/05/28 05:13:23;;;;;;;6.83;1.42;;;;;;;14.36;47.73;100303.30;1749623;81;21038;-69
2023/05/28 05:15:51;;;;;;;7.00;1.50;;;;;;;14.55;47.68;100307.12;1764567;79;20990;-69
2023/05/28 05:18:18;;;;;;;1.55;1.20;;;;;;;14.70;47.51;100298.42;1760978;79;21052;-69
2023/05/28 05:21:02;;;;;;;;;;;;;;;;;;;;;
2023/05/28 05:23:22;;;;;;;11.18;1.20;;;;;;;14.96;46.96;100300.91;1738517;79;21014;-68
2023/05/28 05:25:48;;;;;;;3.77;1.07;;;;;;;15.03;46.58;100293.98;1762823;78;21009;-69
2023/05/28 05:28:17;;;;;;;4.20;1.10;;;;;;;15.07;46.62;100295.48;1736319;79;20951;-70
2023/05/28 05:30:47;;;;;;;3.47;1.02;;;;;;;15.16;46.39;100303.72;1731075;79;20966;-69
2023/05/28 05:33:15;;;;;;;2.00;1.20;;;;;;;15.29;46.43;100298.62;1764584;80;21034;-70
2023/05/28 05:35:43;;;;;;;2.05;1.10;;;;;;;15.42;46.22;100296.94;1759387;79;21149;-70
2023/05/28 05:38:09;;;;;;;6.92;0.93;;;;;;;15.52;46.05;100288.06;1761526;80;21049;-69
2023/05/28 05:40:35;;;;;;;3.52;1.87;;;;;;;15.63;45.94;100288.27;1763082;79;21034;-70
2023/05/28 05:43:01;;;;;;;2.45;1.02;;;;;;;15.73;45.63;100291.22;1762139;79;20932;-70
2023/05/28 05:45:28;;;;;;;3.35;1.17;;;;;;;15.89;45.61;100290.69;1763507;79;20980;-65
2023/05/28 05:47:54;;;;;;;1.95;1.00;;;;;;;16.04;45.48;100285.43;1734900;81;21548;-65
2023/05/28 05:50:27;;;;;;;3.20;1.15;;;;;;;16.18;45.20;100280.63;1693339;83;20993;-65
2023/05/28 05:52:55;;;;;;;1.92;1.00;;;;;;;16.30;45.09;100285.16;1721282;80;21077;-65
2023/05/28 05:55:23;;;;;;;3.92;1.27;;;;;;;16.48;45.24;100281.84;1700964;83;21112;-67
2023/05/28 05:57:49;;;;;;;3.47;1.20;;;;;;;16.70;45.02;100282.17;1706896;82;21047;-66
2023/05/28 06:00:17;;;;;;;2.45;1.30;;;;;;;16.93;45.01;100279.88;1768012;79;21567;-65
2023/05/28 06:02:43;;;;;;;2.33;1.05;;;;;;;17.08;44.49;100286.78;1760455;80;21000;-67
2023/05/28 06:05:10;;;;;;;3.17;1.22;;;;;;;17.16;44.13;100277.89;1764846;79;21106;-65
2023/05/28 06:07:38;;;;;;;4.97;1.10;;;;;;;17.21;44.02;100287.67;1763265;79;20949;-65
2023/05/28 06:10:06;;;;;;;3.65;1.35;;;;;;;17.33;43.78;100282.53;1771850;79;21012;-65
2023/05/28 06:12:32;;;;;;;3.83;1.60;;;;;;;17.47;43.91;100286.41;1762640;78;21050;-65
2023/05/28 06:15:00;;;;;;;5.65;1.30;;;;;;;17.64;43.52;100280.86;1759545;79;21030;-65
2023/05/28 06:17:26;;;;;;;2.95;1.17;;;;;;;17.87;43.65;100282.44;1767966;79;20994;-65
2023/05/28 06:19:52;;;;;;;2.58;1.00;;;;;;;18.03;43.47;100272.48;1764244;80;21001;-65
2023/05/28 06:22:19;;;;;;;3.30;2.12;;;;;;;18.21;43.12;100278.78;1767748;80;21049;-65
2023/05/28 06:24:49;;;;;;;2.62;1.00;;;;;;;18.35;42.87;100277.33;1760377;80;21066;-65
2023/05/28 06:27:19;;;;;;;4.62;1.40;;;;;;;18.41;42.55;100276.88;1756992;79;20966;-65
2023/05/28 06:29:48;;;;;;;5.92;1.02;;;;;;;18.50;42.47;100273.58;1751597;80;21042;-65
2023/05/28 06:32:17;;;;;;;4.25;1.00;;;;;;;18.61;41.92;100272.81;1759145;81;20998;-64
2023/05/28 06:34:44;;;;;;;2.37;1.30;;;;;;;18.76;42.38;100272.20;1760611;79;21649;-65
2023/05/28 06:37:10;;;;;;;3.22;1.27;;;;;;;19.04;42.27;100263.57;1756132;80;21572;-64
2023/05/28 06:39:50;;;;;;;3.22;1.40;;;;;;;19.36;42.16;100267.80;1760967;79;21121;-63
2023/05/28 06:42:07;;;;;;;3.27;1.27;;;;;;;19.69;42.07;100261.78;1759945;80;21006;-66
2023/05/28 06:44:36;;;;;;;;;;;;;;;19.97;41.63;100255.64;1763638;79;21005;-66
2023/05/28 06:47:05;;;;;;;3.30;1.07;;;;;;;20.27;41.18;100253.23;1759609;80;20194;-67
2023/05/28 06:49:35;;;;;;;4.47;1.40;;;;;;;20.59;41.35;100255.17;1747910;79;21561;-69
2023/05/28 06:52:00;;;;;;;6.55;1.20;;;;;;;20.99;41.18;100261.20;1763075;80;20959;-68
2023/05/28 06:54:28;;;;;;;5.28;1.27;;;;;;;21.57;41.37;100264.34;1762248;79;21063;-67
2023/05/28 06:56:59;;;;;;;4.75;1.02;;;;;;;22.47;41.26;100262.34;1725108;82;21106;-66
2023/05/28 06:59:25;;;;;;;3.02;1.37;;;;;;;23.33;40.68;100251.95;1752149;80;21001;-66
2023/05/28 07:01:52;;;;;;;2.75;1.27;;;;;;;24.19;39.65;100250.53;1763688;80;21053;-66
2023/05/28 07:04:18;;;;;;;2.77;1.10;;;;;;;25.11;39.71;100253.55;1722913;81;20935;-67
2023/05/28 07:06:45;;;;;;;2.22;1.10;;;;;;;26.03;39.50;100251.42;1758643;80;21086;-67
2023/05/28 07:09:11;;;;;;;3.83;1.70;;;;;;;27.18;38.85;100241.90;1757809;80;20989;-68
2023/05/28 07:11:39;;;;;;;3.37;1.30;;;;;;;27.95;38.12;100238.78;1763569;79;20999;-67
2023/05/28 07:14:05;;;;;;;6.30;1.37;;;;;;;28.69;37.43;100234.78;1762037;80;21025;-67
2023/05/28 07:16:32;;;;;;;3.92;1.32;;;;;;;29.64;37.47;100242.45;1756748;80;20988;-67
2023/05/28 07:18:58;;;;;;;2.98;1.30;;;;;;;30.69;36.45;100239.16;1760994;79;21514;-67
2023/05/28 07:21:24;;;;;;;2.37;1.37;;;;;;;31.72;35.99;100243.74;1759097;80;20897;-70
2023/05/28 07:23:50;;;;;;;4.90;1.32;;;;;;;32.43;34.69;100229.45;1763059;80;20988;-70
2023/05/28 07:26:17;;;;;;;3.27;1.35;;;;;;;32.89;34.03;100242.82;1757854;80;21014;-68
2023/05/28 07:28:43;;;;;;;2.60;1.12;;;;;;;32.98;32.98;100238.34;1764407;79;21016;-66
2023/05/28 07:31:10;;;;;;;5.85;1.30;;;;;;;33.36;33.22;100230.19;1769017;80;20982;-69
2023/05/28 07:33:38;;;;;;;;;;;;;;;34.06;32.41;100231.87;1759248;80;20991;-68
2023/05/28 07:36:04;;;;;;;1.80;1.15;;;;;;;34.49;31.02;100228.00;1765166;80;20160;-68
2023/05/28 07:38:31;;;;;;;7.42;1.22;;;;;;;34.72;30.69;100232.08;1758323;80;21075;-68
2023/05/28 07:40:57;;;;;;;;;;;;;;;35.19;30.35;100235.31;1771756;80;20919;-69
2023/05/28 07:43:23;;;;;;;3.58;1.17;;;;;;;35.86;28.89;100225.48;1764924;79;20126;-69
2023/05/28 07:45:50;;;;;;;3.85;1.17;;;;;;;36.24;29.20;100217.66;1760227;79;21012;-69
2023/05/28 07:48:16;;;;;;;4.17;1.10;;;;;;;36.56;28.00;100220.17;1762214;80;20959;-70
2023/05/28 07:50:43;;;;;;;3.95;1.37;;;;;;;36.77;27.42;100194.84;1763045;80;21017;-68
2023/05/28 07:53:09;;;;;;;4.37;1.45;;;;;;;36.77;27.42;100194.84;1762506;79;20969;-68
2023/05/28 07:55:35;;;;;;;18.57;2.77;;;;;;;37.10;25.86;100208.77;1756357;80;21058;-68
2023/05/28 07:58:03;;;;;;;4.10;2.10;;;;;;;36.95;25.19;100214.65;1758575;79;21066;-68
2023/05/28 08:00:29;;;;;;;6.67;1.30;;;;;;;36.63;24.67;100210.00;1764348;80;20989;-70
2023/05/28 08:02:56;;;;;;;4.22;1.55;;;;;;;36.81;24.91;100212.38;1763996;80;21089;-68
2023/05/28 08:05:22;;;;;;;2.75;1.50;;;;;;;37.48;24.20;100211.61;1763184;80;21437;-70
2023/05/28 08:07:49;;;;;;;484.95;28.55;;;;;;;37.80;23.40;100212.56;1767763;79;21027;-71
2023/05/28 08:10:15;;;;;;;5.87;1.62;;;;;;;38.19;23.19;100207.39;1759877;79;21062;-68
2023/05/28 08:12:41;;;;;;;6.80;1.22;;;;;;;38.42;22.88;100201.86;1768283;79;21024;-69
2023/05/28 08:15:13;;;;;;;4.15;1.30;;;;;;;38.31;22.30;100208.16;1764618;79;21484;-68
2023/05/28 08:17:37;;;;;;;4.92;1.77;;;;;;;38.42;22.23;100204.59;1762182;79;21539;-69
2023/05/28 08:20:07;;;;;;;2.35;1.50;;;;;;;39.02;21.62;100195.56;1762327;79;20979;-68
2023/05/28 08:22:36;;;;;;;2.83;1.35;;;;;;;39.38;21.52;100196.94;1765667;79;20958;-71
2023/05/28 08:25:03;;;;;;;2.72;1.30;;;;;;;40.01;20.94;100196.16;1759330;79;21010;-70
2023/05/28 08:27:31;;;;;;;3.52;1.47;;;;;;;40.38;20.54;100191.39;1717143;81;20979;-69
2023/05/28 08:29:58;;;;;;;7.95;1.25;;;;;;;40.39;20.05;100194.39;1752508;80;20974;-68
2023/05/28 08:32:24;;;;;;;334.18;20.60;;;;;;;40.62;19.86;100185.88;1754007;79;21001;-65
2023/05/28 08:34:51;;;;;;;4.42;1.50;;;;;;;40.67;19.33;100179.64;1762591;79;21934;-65
2023/05/28 08:37:17;;;;;;;7.10;1.30;;;;;;;40.92;19.22;100179.02;1759405;79;21572;-67
2023/05/28 08:39:45;;;;;;;7.15;1.30;;;;;;;41.54;19.06;100178.40;1751527;80;21137;-67
2023/05/28 08:42:11;;;;;;;6.67;1.47;;;;;;;41.91;18.43;100182.97;1762491;79;21120;-67
2023/05/28 08:44:37;;;;;;;4.40;1.52;;;;;;;42.25;18.25;100175.64;1761790;79;21064;-67
2023/05/28 08:47:05;;;;;;;691.33;46.28;;;;;;;42.52;17.87;100185.05;1752412;80;20950;-67
2023/05/28 08:49:34;;;;;;;5.78;1.60;;;;;;;42.78;17.72;100180.41;1757278;80;21009;-66
2023/05/28 08:52:02;;;;;;;10.03;1.40;;;;;;;43.62;17.53;100174.53;1757417;79;21262;-66
2023/05/28 08:54:29;;;;;;;7.53;1.77;;;;;;;44.36;17.14;100172.78;1755605;80;22063;-66
2023/05/28 08:57:04;;;;;;;4.25;1.52;;;;;;;44.77;16.97;100173.31;1755207;80;21020;-66
2023/05/28 08:59:32;;;;;;;7.55;1.70;;;;;;;45.48;16.36;100169.00;1749204;80;21043;-67
2023/05/28 09:02:03;;;;;;;4.37;1.50;;;;;;;45.35;16.02;100169.73;1763739;79;21537;-66
2023/05/28 09:04:29;;;;;;;3.02;1.47;;;;;;;45.18;15.59;100167.97;1761928;79;21030;-66
2023/05/28 09:07:00;;;;;;;18.37;2.25;;;;;;;44.83;14.62;100163.89;1754754;79;20969;-67
2023/05/28 09:09:29;;;;;;;5.85;1.55;;;;;;;44.49;15.21;100160.31;1763600;79;21041;-67
2023/05/28 09:11:58;;;;;;;2.95;1.65;;;;;;;44.32;14.88;100157.94;1750829;79;21535;-66
2023/05/28 09:14:25;;;;;;;6.90;1.72;;;;;;;44.31;14.34;100157.12;1719052;82;21537;-68
2023/05/28 09:16:53;;;;;;;4.60;1.60;;;;;;;44.13;14.27;100158.59;1748097;79;21025;-67
2023/05/28 09:19:20;;;;;;;3.35;1.40;;;;;;;44.19;14.12;100157.45;1715651;81;22524;-67
2023/05/28 09:21:57;;;;;;;9.90;1.82;;;;;;;44.67;14.25;100157.66;1755876;80;21032;-66
2023/05/28 09:24:25;;;;;;;4.08;1.32;;;;;;;45.18;14.20;100150.06;1752130;79;21074;-65
2023/05/28 09:26:57;;;;;;;3.00;1.40;;;;;;;45.77;13.89;100144.69;1753923;79;21169;-66
2023/05/28 09:29:24;;;;;;;3.12;1.55;;;;;;;45.94;13.71;100149.16;1754249;79;21022;-66
2023/05/28 09:32:01;;;;;;;5.72;1.60;;;;;;;46.02;13.43;100155.11;1759490;79;21045;-66
2023/05/28 09:34:31;;;;;;;;;;;;;;;45.91;13.02;100147.00;1750789;79;20994;-65
2023/05/28 09:37:04;;;;;;;2.95;1.50;;;;;;;46.08;12.67;100137.38;1776420;78;20527;-67
2023/05/28 09:39:34;;;;;;;10.55;2.20;;;;;;;46.66;12.99;100141.13;1728825;80;20962;-66
2023/05/28 09:42:15;;;;;;;3.45;1.60;;;;;;;46.83;12.81;100142.80;1718289;81;21054;-65
2023/05/28 09:44:41;;;;;;;3.40;1.40;;;;;;;47.21;12.67;100139.88;1763880;79;20927;-67
2023/05/28 09:47:21;;;;;;;3.17;1.45;;;;;;;47.68;12.47;100134.25;1756585;79;21002;-66
2023/05/28 09:49:49;;;;;;;2.42;1.20;;;;;;;47.97;12.45;100126.38;1754641;79;20946;-69
2023/05/28 09:52:23;;;;;;;3.12;1.35;;;;;;;48.64;12.29;100123.41;1753717;79;21580;-67
2023/05/28 09:54:52;;;;;;;3.83;1.22;;;;;;;48.86;12.03;100118.39;1753494;79;21045;-67
2023/05/28 09:57:25;;;;;;;18.48;2.33;;;;;;;48.98;11.75;100113.08;1753146;80;21093;-67
2023/05/28 09:59:55;;;;;;;5.95;1.85;;;;;;;48.67;11.53;100110.88;1750396;79;21025;-66
2023/05/28 10:02:28;;;;;;;3.95;1.40;;;;;;;48.02;11.40;100121.30;1746317;79;21008;-67
2023/05/28 10:05:03;;;;;;;2.92;1.67;;;;;;;48.21;11.41;100117.55;1749052;79;21173;-66
2023/05/28 10:07:29;;;;;;;4.80;1.40;;;;;;;47.79;11.16;100108.59;1755349;79;21035;-66
2023/05/28 10:09:59;;;;;;;4.40;1.67;;;;;;;47.90;11.19;100112.75;1717501;81;21036;-66
2023/05/28 10:12:33;;;;;;;4.78;1.92;;;;;;;47.63;10.98;100112.22;1758818;79;20973;-67
2023/05/28 10:15:00;;;;;;;4.20;1.60;;;;;;;48.03;10.87;100113.24;1752291;79;20959;-67
2023/05/28 10:17:32;;;;;;;4.15;1.30;;;;;;;47.58;10.89;100113.14;1747355;79;21053;-67
2023/05/28 10:19:56;;;;;;;5.20;1.87;;;;;;;47.42;10.79;100111.83;1753181;79;21028;-66
2023/05/28 10:22:25;;;;;;;5.45;1.50;;;;;;;48.26;10.69;100109.94;1735340;79;20994;-66
2023/05/28 10:24:55;;;;;;;2.05;1.30;;;;;;;49.18;10.62;100108.09;1754696;79;21169;-68
2023/05/28 10:27:35;;;;;;;3.80;1.92;;;;;;;49.91;10.43;100106.44;1756049;79;21027;-67
2023/05/28 10:30:05;;;;;;;32.67;3.25;;;;;;;49.99;10.25;100105.42;1764417;78;21029;-66
2023/05/28 10:32:42;;;;;;;3.47;1.85;;;;;;;50.69;10.18;100102.79;1765207;79;21031;-66
2023/05/28 10:35:11;;;;;;;6.30;1.77;;;;;;;50.95;10.12;100096.30;1758833;79;21831;-67
2023/05/28 10:37:39;;;;;;;10.20;2.02;;;;;;;51.06;9.98;100099.55;1764850;78;21385;-66
2023/05/28 10:40:14;;;;;;;5.40;1.85;;;;;;;50.15;9.41;100099.61;1765817;79;21568;-66
2023/05/28 10:42:41;;;;;;;2.55;1.50;;;;;;;49.17;9.53;100090.64;1739903;79;21054;-66
2023/05/28 10:45:13;;;;;;;218.97;14.38;;;;;;;48.93;9.65;100088.27;1766422;79;21035;-67
2023/05/28 10:47:40;;;;;;;7.33;1.98;;;;;;;48.52;9.58;100089.38;1756110;79;21070;-66
2023/05/28 10:50:12;;;;;;;5.55;1.65;;;;;;;48.29;9.47;100089.11;1760978;79;21015;-68
2023/05/28 10:52:39;;;;;;;3.25;1.62;;;;;;;48.12;9.58;100089.23;1760092;78;21523;-66
2023/05/28 10:55:08;;;;;;;6.47;1.50;;;;;;;48.43;9.52;100087.64;1759356;79;21451;-67
2023/05/28 10:57:47;;;;;;;4.87;1.62;;;;;;;48.84;9.36;100081.86;1765395;79;20985;-68
2023/05/28 11:00:23;;;;;;;7.17;1.55;;;;;;;48.47;9.33;100083.94;1772511;79;21442;-68
2023/05/28 11:02:58;;;;;;;2.60;1.20;;;;;;;48.07;9.36;100086.59;1774812;79;21012;-68
2023/05/28 11:05:25;;;;;;;;;;;;;;;48.00;9.35;100075.13;1761271;79;21615;-72
2023/05/28 11:07:58;;;;;;;12.18;1.92;;;;;;;47.49;9.01;100072.95;1767425;78;20125;-69
2023/05/28 11:10:30;;;;;;;1.77;1.17;;;;;;;46.67;8.55;100075.14;1759981;79;21606;-70
2023/05/28 11:12:54;;;;;;;10.58;1.42;;;;;;;45.00;9.22;100067.58;1760038;79;21666;-70
2023/05/28 11:15:22;;;;;;;2.67;1.55;;;;;;;44.24;9.53;100070.73;1768857;78;21431;-70
2023/05/28 11:17:50;;;;;;;3.80;1.70;;;;;;;43.98;9.58;100070.67;1766351;79;20990;-70
2023/05/28 11:20:24;;;;;;;10.18;1.65;;;;;;;43.56;9.66;100079.70;1750234;80;21657;-70
2023/05/28 11:22:52;;;;;;;3.33;1.30;;;;;;;43.09;9.89;100078.73;1770869;79;21010;-70
2023/05/28 11:25:21;;;;;;;2.30;1.27;;;;;;;43.11;9.94;100072.42;1764770;79;21113;-70
2023/05/28 11:27:50;;;;;;;3.12;1.20;;;;;;;42.96;9.94;100080.69;1765955;79;21556;-71
2023/05/28 11:30:18;;;;;;;4.25;1.12;;;;;;;41.75;10.20;100077.05;1773121;79;21019;-71
2023/05/28 11:32:46;;;;;;;3.50;1.65;;;;;;;41.25;10.30;100073.00;1770194;79;21014;-70
2023/05/28 11:35:17;;;;;;;7.87;1.72;;;;;;;41.26;10.46;100067.78;1772389;79;21664;-70
2023/05/28 11:37:44;;;;;;;3.42;1.30;;;;;;;41.38;10.69;100067.03;1727779;81;20982;-70